Time;durP1;ratioP1;P1;durP2;ratioP2;P2;SDS_P1;SDS_P2;PMS_P1;PMS_P2;Temp;Humidity;BMP_temperature;BMP_pressure;BME280_temperature;BME280_humidity;BME280_pressure;Samples;Min_cycle;Max_cycle;Signal;HPM_P1;HPM_P2
2023/02/03 00:02:03;;;;;;;8.20;4.00;;;;;;;-0.74;90.15;98868.83;108276;1284;22886;-74
2023/02/03 00:04:30;;;;;;;7.00;3.20;;;;;;;-0.75;90.10;98868.04;106307;1269;26717;-73
2023/02/03 00:06:57;;;;;;;6.20;3.70;;;;;;;-0.77;89.74;98867.79;106029;1282;138319;-73
2023/02/03 00:09:24;;;;;;;8.40;3.20;;;;;;;-0.78;89.72;98864.35;106511;1282;22536;-73
2023/02/03 00:11:52;;;;;;;7.50;3.60;;;;;;;-0.77;89.64;98867.84;105962;1283;138426;-73
2023/02/03 00:14:19;;;;;;;6.30;3.70;;;;;;;-0.78;89.48;98867.05;106628;1268;23225;-73
2023/02/03 00:16:47;;;;;;;8.90;4.10;;;;;;;-0.80;89.24;98867.27;106317;1264;22615;-73
2023/02/03 00:19:14;;;;;;;7.40;3.60;;;;;;;-0.82;89.38;98868.89;106131;1285;137856;-73
2023/02/03 00:21:41;;;;;;;7.40;3.80;;;;;;;-0.83;89.33;98869.02;106191;1287;24246;-75
2023/02/03 00:24:08;;;;;;;6.90;3.20;;;;;;;-0.84;89.61;98882.29;106132;1268;137945;-74
2023/02/03 00:26:41;;;;;;;9.10;3.00;;;;;;;-0.85;89.45;98889.90;106364;1283;25174;-73
2023/02/03 00:29:08;;;;;;;4.70;3.70;;;;;;;-0.82;89.45;98895.89;106112;1286;22540;-74
2023/02/03 00:31:36;;;;;;;5.80;3.70;;;;;;;-0.80;89.45;98895.83;106230;1282;137926;-73
2023/02/03 00:34:04;;;;;;;6.80;2.90;;;;;;;-0.78;89.11;98896.34;106101;1265;25687;-73
2023/02/03 00:36:31;;;;;;;5.00;3.10;;;;;;;-0.74;88.94;98896.85;106575;1287;138298;-73
2023/02/03 00:39:00;;;;;;;6.00;3.50;;;;;;;-0.72;88.26;98903.40;106440;1283;23069;-74
2023/02/03 00:41:32;;;;;;;5.50;2.70;;;;;;;-0.70;87.31;98905.63;106186;1284;25357;-74
2023/02/03 00:43:59;;;;;;;2.30;1.80;;;;;;;-0.68;87.32;98907.04;106331;1271;25494;-73
2023/02/03 00:46:26;;;;;;;1.90;1.60;;;;;;;-0.66;85.07;98913.96;106095;1288;22588;-73
2023/02/03 00:48:53;;;;;;;4.30;2.30;;;;;;;-0.64;85.13;98910.83;106092;1281;138303;-74
2023/02/03 00:51:22;;;;;;;2.80;1.50;;;;;;;-0.62;85.48;98913.68;106118;1281;22852;-74
2023/02/03 00:53:49;;;;;;;3.60;1.80;;;;;;;-0.61;84.13;98912.38;106014;1270;138494;-74
2023/02/03 00:56:16;;;;;;;4.80;2.00;;;;;;;-0.60;83.29;98912.77;106235;1279;22577;-74
2023/02/03 00:58:44;;;;;;;5.60;1.40;;;;;;;-0.59;83.17;98916.99;106270;1283;22536;-74
2023/02/03 01:01:11;;;;;;;2.80;1.10;;;;;;;-0.60;82.93;98917.23;106370;1272;139794;-74
2023/02/03 01:03:38;;;;;;;2.10;1.20;;;;;;;-0.61;82.00;98922.31;106167;1264;22551;-74
2023/02/03 01:06:15;;;;;;;2.70;1.30;;;;;;;-0.61;82.06;98921.46;106066;1282;138337;-74
2023/02/03 01:08:43;;;;;;;2.80;1.50;;;;;;;-0.62;81.92;98924.23;106687;1282;22540;-75
2023/02/03 01:11:13;;;;;;;1.60;0.90;;;;;;;-0.61;81.89;98929.13;106695;1279;22673;-73
2023/02/03 01:13:41;;;;;;;2.50;1.80;;;;;;;-0.61;81.59;98926.81;106368;1284;138452;-74
2023/02/03 01:16:10;;;;;;;1.70;1.30;;;;;;;-0.61;81.73;98926.95;107115;1281;25379;-74
2023/02/03 01:18:39;;;;;;;1.50;0.80;;;;;;;-0.61;82.18;98927.69;106300;1279;139654;-74
2023/02/03 01:21:15;;;;;;;1.60;1.30;;;;;;;-0.61;82.29;98924.65;107871;1279;22534;-74
2023/02/03 01:23:42;;;;;;;3.40;1.30;;;;;;;-0.60;82.65;98929.40;106870;1286;138889;-74
2023/02/03 01:26:14;;;;;;;3.20;1.40;;;;;;;-0.60;82.61;98926.35;106288;1268;22848;-75
2023/02/03 01:28:41;;;;;;;2.20;1.50;;;;;;;-0.60;83.01;98922.91;106063;1283;24076;-74
2023/02/03 01:31:14;;;;;;;5.00;2.10;;;;;;;-0.60;83.48;98920.94;106105;1279;139014;-74
2023/02/03 01:33:45;;;;;;;3.10;2.10;;;;;;;-0.59;83.93;98918.92;106207;1284;24238;-74
2023/02/03 01:36:16;;;;;;;5.80;2.80;;;;;;;-0.58;84.23;98923.05;106086;1268;138329;-74
2023/02/03 01:38:45;;;;;;;7.30;4.00;;;;;;;-0.54;85.03;98927.90;106328;1263;22695;-74
2023/02/03 01:41:20;;;;;;;7.20;4.20;;;;;;;-0.53;85.54;98924.40;106945;1280;22565;-74
2023/02/03 01:43:50;;;;;;;10.30;4.60;;;;;;;-0.53;86.60;98917.05;107061;1282;140312;-74
2023/02/03 01:46:17;;;;;;;8.90;5.60;;;;;;;-0.53;86.78;98920.95;106292;1287;22566;-74
2023/02/03 01:48:45;;;;;;;6.80;4.60;;;;;;;-0.53;87.15;98916.54;106093;1287;139907;-74
2023/02/03 01:51:12;;;;;;;7.50;3.90;;;;;;;-0.54;87.12;98916.77;106045;1288;22662;-74
2023/02/03 01:53:41;;;;;;;5.70;3.60;;;;;;;-0.54;86.73;98913.80;105989;1288;138345;-74
2023/02/03 01:56:09;;;;;;;6.90;3.30;;;;;;;-0.55;86.88;98917.64;106186;1270;22566;-74
2023/02/03 01:58:40;;;;;;;5.90;3.80;;;;;;;-0.57;86.68;98916.06;106270;1285;23204;-74
2023/02/03 02:01:07;;;;;;;5.80;2.80;;;;;;;-0.59;86.72;98915.28;106179;1282;138479;-74
2023/02/03 02:03:48;;;;;;;5.10;3.40;;;;;;;-0.60;86.54;98916.86;106208;1286;25350;-74
2023/02/03 02:06:15;;;;;;;5.80;3.00;;;;;;;-0.61;86.63;98913.81;106233;1269;137961;-75
2023/02/03 02:08:49;;;;;;;5.90;2.50;;;;;;;-0.63;85.94;98910.42;106265;1287;22547;-74
2023/02/03 02:11:20;;;;;;;5.30;2.90;;;;;;;-0.64;85.86;98909.30;106437;1287;24094;-74
2023/02/03 02:13:50;;;;;;;3.50;2.40;;;;;;;-0.66;85.67;98902.34;106174;1287;138239;-74
2023/02/03 02:16:29;;;;;;;4.70;2.50;;;;;;;-0.67;85.80;98899.41;106347;1269;22551;-74
2023/02/03 02:19:22;;;;;;;5.80;2.20;;;;;;;-0.67;85.69;98897.71;106138;1286;137969;-74
2023/02/03 02:22:11;;;;;;;4.10;2.40;;;;;;;-0.69;85.83;98893.23;106161;1265;22530;-74
2023/02/03 02:25:04;;;;;;;5.80;3.40;;;;;;;-0.69;85.68;98891.82;106138;1286;138995;-74
2023/02/03 02:28:16;;;;;;;5.50;3.10;;;;;;;-0.69;85.56;98887.95;106056;1271;24355;-74
2023/02/03 02:31:22;;;;;;;8.40;3.30;;;;;;;-0.71;85.59;98892.04;106112;1284;139337;-74
2023/02/03 02:34:13;;;;;;;7.20;3.40;;;;;;;-0.74;85.92;98891.40;105639;1295;24509;-74
2023/02/03 02:37:01;;;;;;;9.00;4.20;;;;;;;-0.76;85.76;98891.63;105621;1275;138057;-74
2023/02/03 02:39:40;;;;;;;11.40;5.10;;;;;;;-0.79;85.84;98890.14;105716;1294;22559;-74
2023/02/03 02:42:27;;;;;;;8.40;4.50;;;;;;;-0.83;86.19;98893.27;105667;1285;138357;-75
2023/02/03 02:45:07;;;;;;;14.60;7.70;;;;;;;-0.88;86.02;98896.48;105888;1284;22792;-74
2023/02/03 02:47:34;;;;;;;14.50;5.40;;;;;;;-0.92;86.52;98901.73;105545;1276;138199;-74
2023/02/03 02:50:10;;;;;;;12.50;6.00;;;;;;;-0.96;86.83;98904.25;105781;1292;24213;-74
2023/02/03 02:52:41;;;;;;;10.60;5.40;;;;;;;-0.99;87.03;98906.73;105695;1294;25390;-75
2023/02/03 02:55:23;;;;;;;14.60;5.40;;;;;;;-1.01;87.19;98908.35;105591;1294;138247;-74
2023/02/03 02:57:55;;;;;;;11.90;6.90;;;;;;;-1.03;87.67;98906.55;105685;1272;24008;-74
2023/02/03 03:00:23;;;;;;;11.80;7.10;;;;;;;-1.05;87.55;98901.64;105231;1293;139166;-75
2023/02/03 03:02:50;;;;;;;14.40;7.30;;;;;;;-1.08;87.92;98899.14;105577;1286;22662;-74
2023/02/03 03:05:18;;;;;;;11.70;6.00;;;;;;;-1.11;87.79;98896.59;105575;1294;25052;-75
2023/02/03 03:07:53;;;;;;;10.90;6.50;;;;;;;-1.15;88.10;98895.30;105617;1277;138303;-74
2023/02/03 03:10:26;;;;;;;12.70;6.00;;;;;;;-1.17;87.99;98883.23;105818;1287;22636;-75
2023/02/03 03:12:57;;;;;;;11.50;6.50;;;;;;;-1.19;88.21;98877.08;106192;1266;138819;-75
2023/02/03 03:15:30;;;;;;;11.60;6.90;;;;;;;-1.21;88.23;98866.02;106224;1287;25227;-75
2023/02/03 03:18:08;;;;;;;11.50;6.80;;;;;;;-1.24;88.05;98857.11;106272;1285;138464;-75
2023/02/03 03:20:41;;;;;;;11.60;6.60;;;;;;;-1.27;88.06;98847.61;106405;1286;22619;-75
2023/02/03 03:23:29;;;;;;;13.50;6.90;;;;;;;-1.30;88.20;98846.19;106260;1286;22555;-75
2023/02/03 03:26:06;;;;;;;13.00;7.50;;;;;;;-1.33;88.10;98846.65;106588;1279;138884;-75
2023/02/03 03:28:46;;;;;;;10.40;7.10;;;;;;;-1.37;88.19;98851.67;106171;1268;24231;-75
2023/02/03 03:31:14;;;;;;;14.40;8.80;;;;;;;-1.41;88.48;98859.06;106304;1286;139405;-75
2023/02/03 03:33:41;;;;;;;14.70;8.20;;;;;;;-1.46;88.32;98867.38;106462;1288;23163;-75
2023/02/03 03:36:28;;;;;;;14.00;8.30;;;;;;;-1.49;88.27;98875.70;106628;1287;138475;-75
2023/02/03 03:39:28;;;;;;;12.20;7.70;;;;;;;-1.52;88.53;98881.36;106644;1268;23007;-75
2023/02/03 03:42:09;;;;;;;16.60;8.40;;;;;;;-1.56;88.68;98882.14;106154;1284;138089;-75
2023/02/03 03:44:44;;;;;;;16.20;7.80;;;;;;;-1.61;88.97;98883.64;106232;1286;24231;-75
2023/02/03 03:47:19;;;;;;;15.80;8.30;;;;;;;-1.64;88.45;98886.80;106301;1264;23305;-75
2023/02/03 03:49:49;;;;;;;14.40;8.20;;;;;;;-1.67;88.79;98887.67;106144;1287;138214;-75
2023/02/03 03:52:22;;;;;;;12.90;7.50;;;;;;;-1.71;88.62;98891.78;106211;1287;25343;-75
2023/02/03 03:54:51;;;;;;;12.00;7.20;;;;;;;-1.75;88.70;98889.05;106145;1287;138012;-75
2023/02/03 03:57:25;;;;;;;12.60;7.80;;;;;;;-1.80;88.74;98880.43;106541;1263;22538;-75
2023/02/03 03:59:53;;;;;;;12.90;7.60;;;;;;;-1.83;88.91;98871.48;106149;1273;138170;-75
2023/02/03 04:02:22;;;;;;;13.20;7.50;;;;;;;-1.84;88.75;98862.22;106170;1287;23589;-76
2023/02/03 04:04:50;;;;;;;13.10;7.50;;;;;;;-1.87;88.92;98845.95;106157;1287;22662;-75
2023/02/03 04:07:19;;;;;;;13.30;7.70;;;;;;;-1.88;89.00;98844.44;106773;1281;138438;-76
2023/02/03 04:09:46;;;;;;;11.70;7.30;;;;;;;-1.91;89.02;98841.45;106258;1268;23977;-75
2023/02/03 04:12:22;;;;;;;11.30;7.10;;;;;;;-1.91;89.62;98840.55;106202;1283;138383;-75
2023/02/03 04:14:49;;;;;;;13.00;7.00;;;;;;;-1.92;89.31;98841.57;106397;1284;24454;-75
2023/02/03 04:17:18;;;;;;;9.50;5.80;;;;;;;-1.93;89.51;98843.45;106081;1283;279887;-75
2023/02/03 04:19:47;;;;;;;11.70;7.20;;;;;;;-1.93;89.47;98842.38;106422;1262;137960;-75
2023/02/03 04:22:14;;;;;;;13.30;6.00;;;;;;;-1.93;89.62;98842.94;106711;1282;24171;-75
2023/02/03 04:24:41;;;;;;;10.60;5.70;;;;;;;-1.94;89.57;98837.20;106407;1284;138407;-76
2023/02/03 04:27:08;;;;;;;10.20;5.50;;;;;;;-1.94;89.69;98841.50;106878;1281;25492;-75
2023/02/03 04:29:35;;;;;;;9.50;5.70;;;;;;;-1.95;89.75;98838.55;106210;1267;138091;-76
2023/02/03 04:32:02;;;;;;;12.20;5.60;;;;;;;-1.95;89.47;98831.64;106536;1283;24386;-76
2023/02/03 04:34:29;;;;;;;9.30;5.50;;;;;;;-1.95;89.38;98835.17;106503;1283;22716;-76
2023/02/03 04:36:56;;;;;;;10.30;5.20;;;;;;;-1.96;89.28;98834.71;106371;1272;137778;-75
2023/02/03 04:39:23;;;;;;;9.00;4.90;;;;;;;-1.97;89.44;98833.41;106450;1282;22577;-76
2023/02/03 04:41:50;;;;;;;11.70;5.80;;;;;;;-1.98;89.39;98831.96;106519;1282;138365;-76
2023/02/03 04:44:17;;;;;;;9.80;5.30;;;;;;;-2.00;89.32;98836.19;106513;1282;22891;-75
2023/02/03 04:46:44;;;;;;;11.20;5.70;;;;;;;-2.01;89.28;98832.55;106699;1276;22603;-76
2023/02/03 04:49:11;;;;;;;10.80;5.90;;;;;;;-2.01;89.09;98831.44;106341;1269;137912;-75
2023/02/03 04:51:38;;;;;;;10.60;5.70;;;;;;;-2.01;89.50;98820.86;106491;1284;22573;-75
2023/02/03 04:54:05;;;;;;;11.90;6.00;;;;;;;-2.01;89.29;98823.50;106352;1284;138087;-75
2023/02/03 04:56:32;;;;;;;12.40;5.80;;;;;;;-2.01;89.26;98823.98;106365;1284;25192;-75
2023/02/03 04:58:59;;;;;;;9.90;5.30;;;;;;;-2.01;89.30;98820.43;106316;1265;24359;-75
2023/02/03 05:01:26;;;;;;;9.70;5.50;;;;;;;-1.99;89.39;98817.55;106849;1283;137963;-75
2023/02/03 05:03:53;;;;;;;9.60;5.40;;;;;;;-1.98;89.26;98819.98;106377;1284;22547;-75
2023/02/03 05:06:24;;;;;;;11.50;6.60;;;;;;;-1.97;89.44;98818.79;106498;1284;138197;-75
2023/02/03 05:08:52;;;;;;;11.90;5.90;;;;;;;-1.96;89.49;98814.73;106453;1259;23902;-74
2023/02/03 05:11:22;;;;;;;12.90;6.60;;;;;;;-1.94;89.46;98816.91;106500;1282;22661;-75
2023/02/03 05:13:49;;;;;;;10.70;6.60;;;;;;;-1.94;89.38;98815.52;107183;1280;138446;-75
2023/02/03 05:16:16;;;;;;;11.90;6.00;;;;;;;-1.94;89.21;98814.20;106419;1276;22979;-74
2023/02/03 05:18:43;;;;;;;11.60;5.70;;;;;;;-1.93;89.49;98812.67;106857;1282;138475;-74
2023/02/03 05:21:12;;;;;;;10.60;5.30;;;;;;;-1.93;89.21;98805.73;106341;1268;25493;-74
2023/02/03 05:23:38;;;;;;;9.90;5.60;;;;;;;-1.93;89.14;98809.98;106217;1284;138674;-73
2023/02/03 05:26:06;;;;;;;13.40;6.40;;;;;;;-1.92;89.26;98804.58;106402;1282;25470;-73
2023/02/03 05:28:32;;;;;;;12.60;5.90;;;;;;;-1.93;89.04;98801.27;106712;1279;25709;-73
2023/02/03 05:31:00;;;;;;;8.20;4.60;;;;;;;-1.93;89.00;98800.40;106419;1265;138114;-73
2023/02/03 05:33:28;;;;;;;8.90;5.40;;;;;;;-1.94;88.65;98791.48;106481;1280;22559;-73
2023/02/03 05:35:56;;;;;;;9.10;4.40;;;;;;;-1.95;88.84;98781.61;106623;1282;138624;-72
2023/02/03 05:38:23;;;;;;;9.50;4.90;;;;;;;-1.96;88.85;98780.47;106432;1280;25636;-72
2023/02/03 05:43:37;;;;;;;7.40;4.20;;;;;;;-1.97;88.53;98774.13;106690;1283;138133;-72
2023/02/03 05:46:05;;;;;;;7.90;4.00;;;;;;;-1.97;88.47;98776.86;106235;1284;22546;-72
2023/02/03 05:48:33;;;;;;;8.90;4.80;;;;;;;-1.97;88.41;98780.87;106298;1284;137996;-72
2023/02/03 05:51:01;;;;;;;9.40;5.70;;;;;;;-1.96;88.49;98779.36;106813;1263;22663;-73
2023/02/03 05:53:28;;;;;;;16.40;6.40;;;;;;;-1.96;88.31;98780.09;107210;1278;23246;-72
2023/02/03 05:55:55;;;;;;;15.10;7.80;;;;;;;-1.96;88.40;98778.16;106580;1276;137783;-72
2023/02/03 05:58:22;;;;;;;12.90;6.80;;;;;;;-1.96;88.79;98774.04;106576;1281;22561;-71
2023/02/03 06:00:49;;;;;;;16.00;8.40;;;;;;;-1.95;88.77;98772.34;106360;1278;137907;-72
2023/02/03 06:03:16;;;;;;;15.60;8.20;;;;;;;-1.95;88.79;98767.54;106427;1278;24215;-71
2023/02/03 06:05:43;;;;;;;14.60;7.80;;;;;;;-1.95;88.81;98770.95;106484;1279;139070;-71
2023/02/03 06:08:13;;;;;;;15.40;8.40;;;;;;;-1.96;88.86;98772.43;106701;1280;26996;-71
2023/02/03 06:10:43;;;;;;;18.40;9.10;;;;;;;-1.96;88.93;98766.92;106683;1265;25288;-71
2023/02/03 06:13:12;;;;;;;17.90;10.60;;;;;;;-1.96;88.93;98761.92;106206;1282;139491;-71
2023/02/03 06:15:39;;;;;;;20.50;9.90;;;;;;;-1.96;89.18;98756.11;106507;1280;24392;-71
2023/02/03 06:18:07;;;;;;;18.20;9.70;;;;;;;-1.97;89.20;98743.20;106379;1275;138512;-71
2023/02/03 06:20:34;;;;;;;15.70;9.10;;;;;;;-1.97;89.35;98732.92;106485;1263;22550;-71
2023/02/03 06:23:01;;;;;;;17.70;9.30;;;;;;;-1.97;89.24;98723.81;106536;1282;25367;-71
2023/02/03 06:25:30;;;;;;;17.90;9.70;;;;;;;-1.97;89.28;98720.85;106473;1282;138005;-71
2023/02/03 06:28:08;;;;;;;;;;;;;;;-1.98;89.48;98718.67;106642;1283;23172;-71
2023/02/03 06:30:40;;;;;;;15.40;9.00;;;;;;;-1.97;89.54;98717.79;106234;1281;126029;-71
2023/02/03 06:33:07;;;;;;;23.00;12.00;;;;;;;-1.96;89.69;98717.45;106476;1278;22558;-71
2023/02/03 06:35:35;;;;;;;19.80;12.00;;;;;;;-1.95;89.90;98709.21;106256;1282;139422;-71
2023/02/03 06:38:02;;;;;;;17.60;10.40;;;;;;;-1.94;89.71;98703.79;106484;1284;23233;-71
2023/02/03 06:40:29;;;;;;;19.10;10.90;;;;;;;-1.92;89.72;98711.34;106285;1260;23286;-71
2023/02/03 06:42:56;;;;;;;18.90;10.70;;;;;;;-1.91;89.72;98711.73;106181;1278;138376;-71
2023/02/03 06:45:23;;;;;;;19.80;10.80;;;;;;;-1.88;89.82;98718.13;106336;1282;22682;-71
2023/02/03 06:47:51;;;;;;;17.50;10.80;;;;;;;-1.86;90.00;98713.66;106282;1282;138765;-71
2023/02/03 06:50:18;;;;;;;21.20;12.10;;;;;;;-1.84;89.85;98709.73;106599;1281;24368;-71
2023/02/03 06:52:45;;;;;;;18.50;10.50;;;;;;;-1.83;89.50;98705.31;106878;1264;22539;-71
2023/02/03 06:55:12;;;;;;;19.00;10.60;;;;;;;-1.81;89.65;98702.61;106426;1272;140443;-71
2023/02/03 06:57:44;;;;;;;20.70;11.10;;;;;;;-1.78;89.69;98703.48;106657;1282;22559;-71
2023/02/03 07:00:13;;;;;;;20.20;10.60;;;;;;;-1.70;90.28;98695.19;106815;1282;138777;-71
2023/02/03 07:02:40;;;;;;;16.30;9.40;;;;;;;-1.65;90.10;98696.61;107815;1265;24727;-73
2023/02/03 07:05:08;;;;;;;17.90;9.60;;;;;;;-1.56;90.69;98694.84;106730;1279;22790;-71
2023/02/03 07:07:38;;;;;;;21.50;9.80;;;;;;;-1.46;90.22;98690.39;106678;1269;139532;-70
2023/02/03 07:10:06;;;;;;;17.30;9.40;;;;;;;-1.41;89.56;98685.80;106605;1282;22554;-70
2023/02/03 07:12:35;;;;;;;19.80;10.30;;;;;;;-1.39;88.91;98683.98;106450;1272;138259;-71
2023/02/03 07:15:03;;;;;;;20.20;9.80;;;;;;;-1.37;89.24;98677.46;106641;1281;22534;-70
2023/02/03 07:17:31;;;;;;;19.20;9.90;;;;;;;-1.32;89.32;98672.91;106611;1282;23934;-70
2023/02/03 07:19:58;;;;;;;19.10;10.20;;;;;;;-1.29;88.99;98669.54;106463;1264;22631;-70
2023/02/03 07:22:25;;;;;;;16.60;9.30;;;;;;;-1.25;88.39;98671.25;106468;1265;22545;-70
2023/02/03 07:24:52;;;;;;;16.90;9.70;;;;;;;-1.20;88.92;98672.42;106407;1282;138184;-70
2023/02/03 07:27:19;;;;;;;19.30;9.50;;;;;;;-1.12;88.86;98668.06;106582;1279;22955;-70
2023/02/03 07:29:46;;;;;;;15.80;9.00;;;;;;;-1.05;88.77;98664.33;106431;1282;138891;-70
2023/02/03 07:32:13;;;;;;;14.50;8.40;;;;;;;-0.98;88.45;98658.76;106475;1264;22856;-70
2023/02/03 07:34:40;;;;;;;17.80;9.30;;;;;;;-0.91;88.33;98657.48;106518;1272;22655;-70
2023/02/03 07:37:07;;;;;;;16.50;9.10;;;;;;;-0.85;87.73;98658.06;106438;1282;138186;-70
2023/02/03 07:39:34;;;;;;;18.50;8.80;;;;;;;-0.81;87.46;98656.69;106548;1281;26498;-70
2023/02/03 07:42:01;;;;;;;15.80;9.60;;;;;;;-0.76;87.37;98649.77;106257;1282;138383;-70
2023/02/03 07:44:29;;;;;;;19.60;10.10;;;;;;;-0.71;87.17;98642.11;106444;1281;22600;-72
2023/02/03 07:46:56;;;;;;;17.70;9.00;;;;;;;-0.69;86.93;98636.64;106741;1282;138533;-71
2023/02/03 07:49:23;;;;;;;15.80;9.30;;;;;;;-0.66;86.45;98629.70;106517;1276;24241;-70
2023/02/03 07:51:50;;;;;;;19.10;10.00;;;;;;;-0.63;86.34;98621.38;106525;1263;22531;-71
2023/02/03 07:54:17;;;;;;;18.50;11.00;;;;;;;-0.59;86.40;98619.00;106471;1281;138039;-70
2023/02/03 07:56:44;;;;;;;14.80;8.80;;;;;;;-0.54;86.23;98614.75;106547;1281;22542;-70
2023/02/03 07:59:11;;;;;;;17.40;10.10;;;;;;;-0.50;86.09;98613.02;106442;1281;138332;-70
2023/02/03 08:01:38;;;;;;;17.20;9.50;;;;;;;-0.43;86.06;98606.70;106490;1281;25426;-70
2023/02/03 08:04:05;;;;;;;16.40;9.60;;;;;;;-0.36;85.97;98600.29;106217;1267;23074;-71
2023/02/03 08:06:32;;;;;;;16.40;8.80;;;;;;;-0.30;85.81;98590.34;106365;1282;138277;-70
2023/02/03 08:08:59;;;;;;;13.80;7.80;;;;;;;-0.26;85.33;98586.95;106437;1284;22538;-71
2023/02/03 08:11:26;;;;;;;13.40;7.80;;;;;;;-0.24;84.80;98582.23;106280;1284;139037;-71
2023/02/03 08:13:53;;;;;;;14.90;8.30;;;;;;;-0.23;83.99;98574.84;106556;1262;25406;-71
2023/02/03 08:16:21;;;;;;;14.40;8.30;;;;;;;-0.19;84.23;98570.47;106482;1281;22646;-71
2023/02/03 08:18:48;;;;;;;15.20;7.60;;;;;;;-0.15;84.17;98569.22;106406;1282;137671;-71
2023/02/03 08:21:15;;;;;;;16.40;8.20;;;;;;;-0.11;83.92;98566.15;106513;1281;25236;-71
2023/02/03 08:23:42;;;;;;;11.30;7.20;;;;;;;-0.07;83.86;98563.35;106340;1283;138485;-71
2023/02/03 08:26:09;;;;;;;19.80;9.00;;;;;;;-0.02;83.77;98559.66;106658;1275;22448;-72
2023/02/03 08:28:36;;;;;;;14.70;7.60;;;;;;;0.03;83.40;98555.72;107926;1272;140427;-71
2023/02/03 08:31:12;;;;;;;15.20;8.30;;;;;;;0.07;82.99;98555.80;107164;1267;22472;-74
2023/02/03 08:33:39;;;;;;;13.70;7.30;;;;;;;0.20;84.16;98549.00;107496;1263;22559;-72
2023/02/03 08:36:07;;;;;;;11.90;7.00;;;;;;;0.43;83.60;98550.20;107435;1276;138952;-72
2023/02/03 08:38:34;;;;;;;14.30;7.40;;;;;;;0.52;81.95;98547.36;107287;1276;23768;-72
2023/02/03 08:41:01;;;;;;;13.10;6.60;;;;;;;0.55;81.18;98544.69;106804;1275;137855;-72
2023/02/03 08:43:28;;;;;;;10.30;5.30;;;;;;;0.56;80.31;98531.62;107735;1265;24199;-72
2023/02/03 08:45:54;;;;;;;8.60;5.10;;;;;;;0.55;79.69;98520.64;106563;1281;22596;-71
2023/02/03 08:48:27;;;;;;;11.00;5.60;;;;;;;0.54;79.45;98510.16;107258;1275;138126;-72
2023/02/03 08:50:54;;;;;;;8.00;4.80;;;;;;;0.55;79.64;98508.98;106810;1281;22589;-72
2023/02/03 08:53:21;;;;;;;8.10;4.40;;;;;;;0.60;79.69;98514.20;106258;1283;138327;-72
2023/02/03 08:55:48;;;;;;;8.80;4.80;;;;;;;0.65;79.63;98512.20;106325;1284;22560;-72
2023/02/03 08:58:16;;;;;;;10.00;5.20;;;;;;;0.70;79.08;98509.52;106743;1271;22604;-72
2023/02/03 09:00:43;;;;;;;6.70;4.10;;;;;;;0.76;78.59;98504.79;106352;1282;137742;-72
2023/02/03 09:03:10;;;;;;;7.90;5.10;;;;;;;0.83;78.62;98498.73;107236;1263;22441;-73
2023/02/03 09:05:37;;;;;;;8.70;4.90;;;;;;;0.93;78.39;98494.18;108590;1276;137722;-71
2023/02/03 09:08:04;;;;;;;10.30;4.50;;;;;;;0.98;77.73;98493.80;108948;1276;22305;-73
2023/02/03 09:10:31;;;;;;;7.00;4.90;;;;;;;1.03;77.38;98494.63;107502;1282;139441;-72
2023/02/03 09:12:58;;;;;;;12.50;5.60;;;;;;;1.09;76.92;98484.44;107155;1282;22577;-73
2023/02/03 09:15:27;;;;;;;16.70;7.30;;;;;;;1.15;76.92;98483.54;106368;1267;22540;-72
2023/02/03 09:17:56;;;;;;;24.40;9.20;;;;;;;1.20;76.13;98485.09;106288;1281;138113;-72
2023/02/03 09:20:24;;;;;;;16.60;7.50;;;;;;;1.25;75.94;98480.47;106399;1284;22791;-72
2023/02/03 09:22:53;;;;;;;11.10;6.20;;;;;;;1.31;75.30;98480.67;106360;1284;139090;-73
2023/02/03 09:25:21;;;;;;;10.20;5.90;;;;;;;1.36;75.35;98477.31;106413;1265;25116;-73
2023/02/03 09:27:48;;;;;;;11.80;6.50;;;;;;;1.39;75.09;98478.48;106893;1284;25429;-73
2023/02/03 09:30:15;;;;;;;11.70;6.50;;;;;;;1.44;75.30;98478.05;106374;1283;137863;-73
2023/02/03 09:32:43;;;;;;;12.10;6.20;;;;;;;1.47;74.70;98477.67;106483;1284;24289;-73
2023/02/03 09:35:10;;;;;;;11.90;6.20;;;;;;;1.44;74.07;98476.84;106317;1268;138845;-73
2023/02/03 09:37:37;;;;;;;10.80;6.70;;;;;;;1.43;74.23;98473.03;106498;1282;25555;-73
2023/02/03 09:40:06;;;;;;;11.90;6.30;;;;;;;1.42;74.09;98467.25;106503;1282;23915;-73
2023/02/03 09:42:51;;;;;;;17.30;7.00;;;;;;;1.38;73.35;98464.67;106635;1278;137640;-73
2023/02/03 09:45:26;;;;;;;15.10;6.40;;;;;;;1.33;73.57;98457.92;106637;1264;25394;-73
2023/02/03 09:47:59;;;;;;;13.70;7.50;;;;;;;1.28;73.69;98451.04;107826;1281;138356;-73
2023/02/03 09:50:34;;;;;;;18.80;8.00;;;;;;;1.25;73.86;98447.05;106481;1284;22555;-73
2023/02/03 09:53:09;;;;;;;13.30;7.50;;;;;;;1.25;73.99;98439.40;106674;1276;137921;-73
2023/02/03 09:55:41;;;;;;;20.10;8.20;;;;;;;1.26;73.66;98432.11;106523;1264;25277;-72
2023/02/03 09:58:11;;;;;;;16.90;7.70;;;;;;;1.30;73.94;98431.51;106529;1282;22554;-72
2023/02/03 10:00:48;;;;;;;11.20;6.00;;;;;;;1.33;73.72;98426.98;106626;1282;137832;-72
2023/02/03 10:03:30;;;;;;;11.80;6.40;;;;;;;1.35;73.51;98422.28;106547;1282;25478;-75
2023/02/03 10:06:35;;;;;;;13.70;6.70;;;;;;;1.37;73.49;98413.72;106302;1282;137931;-72
2023/02/03 10:09:17;;;;;;;26.70;6.90;;;;;;;1.37;73.56;98411.53;106676;1276;22189;-72
2023/02/03 10:11:51;;;;;;;11.80;6.20;;;;;;;1.39;74.10;98406.27;107230;1259;137891;-73
2023/02/03 10:14:42;;;;;;;10.00;5.30;;;;;;;1.39;74.09;98393.94;106900;1282;23782;-73
2023/02/03 10:17:29;;;;;;;12.20;5.80;;;;;;;1.37;74.90;98383.13;108860;1266;138300;-73
2023/02/03 10:20:11;;;;;;;15.00;5.40;;;;;;;1.36;75.19;98377.34;108382;1277;22647;-73
2023/02/03 10:22:46;;;;;;;10.80;5.60;;;;;;;1.35;75.53;98366.11;106854;1272;137824;-73
2023/02/03 10:25:13;;;;;;;12.80;5.70;;;;;;;1.34;75.67;98352.42;106537;1263;23099;-72
2023/02/03 10:27:43;;;;;;;11.20;5.60;;;;;;;1.34;76.18;98339.06;106545;1279;24187;-72
2023/02/03 10:30:20;;;;;;;11.20;5.90;;;;;;;1.33;76.24;98333.27;106385;1284;139426;-72
2023/02/03 10:32:55;;;;;;;9.90;4.70;;;;;;;1.31;76.15;98323.55;106452;1281;22641;-73
2023/02/03 10:35:35;;;;;;;9.40;4.80;;;;;;;1.26;76.01;98314.41;106717;1275;139166;-73
2023/02/03 10:38:12;;;;;;;11.60;5.70;;;;;;;1.21;76.40;98307.38;106429;1281;25516;-73
2023/02/03 10:40:39;;;;;;;10.10;5.70;;;;;;;1.17;76.93;98299.08;106370;1284;138081;-73
2023/02/03 10:45:54;;;;;;;12.30;6.10;;;;;;;1.08;77.74;98277.19;106454;1267;22546;-73
2023/02/03 10:48:23;;;;;;;9.70;5.60;;;;;;;1.01;78.13;98265.52;106614;1280;138443;-73
2023/02/03 10:50:52;;;;;;;10.10;4.60;;;;;;;0.95;78.71;98256.79;106412;1284;23390;-73
2023/02/03 10:53:26;;;;;;;8.80;4.90;;;;;;;0.89;79.10;98246.37;106666;1281;142999;-73
2023/02/03 10:56:10;;;;;;;8.00;5.00;;;;;;;0.87;79.46;98237.60;106342;1260;23453;-74
2023/02/03 10:58:39;;;;;;;9.70;4.50;;;;;;;0.86;80.15;98227.16;106388;1281;138203;-74
2023/02/03 11:01:08;;;;;;;8.40;4.70;;;;;;;0.83;80.50;98224.56;106508;1281;24479;-73
2023/02/03 11:03:36;;;;;;;8.10;4.20;;;;;;;0.81;80.71;98214.18;106777;1282;22538;-74
2023/02/03 11:06:13;;;;;;;8.20;4.20;;;;;;;0.81;81.13;98204.36;106890;1260;137655;-76
2023/02/03 11:08:44;;;;;;;10.20;4.90;;;;;;;0.78;81.18;98196.67;107493;1279;22540;-74
2023/02/03 11:11:31;;;;;;;9.80;5.20;;;;;;;0.76;81.44;98183.73;106943;1276;137721;-74
2023/02/03 11:14:04;;;;;;;6.90;4.60;;;;;;;0.73;81.55;98171.80;107015;1276;22538;-74
2023/02/03 11:16:33;;;;;;;7.60;4.30;;;;;;;0.69;81.72;98161.72;106409;1271;137820;-74
2023/02/03 11:19:33;;;;;;;7.10;3.70;;;;;;;0.64;82.46;98154.12;106939;1275;24205;-74
2023/02/03 11:22:00;;;;;;;7.00;3.60;;;;;;;0.56;82.72;98152.35;106108;1288;22787;-75
2023/02/03 11:24:36;;;;;;;7.30;3.90;;;;;;;0.50;83.24;98144.45;106377;1282;138099;-75
2023/02/03 11:27:15;;;;;;;3.70;2.90;;;;;;;0.47;83.67;98130.27;106866;1269;22692;-75
2023/02/03 11:29:46;;;;;;;4.90;3.30;;;;;;;0.43;84.11;98117.58;106689;1282;141096;-75
2023/02/03 11:32:41;;;;;;;6.20;3.90;;;;;;;0.38;84.52;98112.62;107037;1284;25483;-75
2023/02/03 11:35:18;;;;;;;5.80;3.90;;;;;;;0.36;85.12;98101.23;106021;1287;137938;-75
2023/02/03 11:37:53;;;;;;;6.10;2.80;;;;;;;0.38;85.53;98093.75;106775;1269;22584;-75
2023/02/03 11:40:20;;;;;;;6.80;3.20;;;;;;;0.36;85.89;98079.96;106195;1281;22722;-75
2023/02/03 11:42:50;;;;;;;6.70;3.10;;;;;;;0.35;86.28;98071.21;106977;1281;138544;-75